Terminal Aerodrome Forecast
Issued by NWS Caribou, ME

Home | Current Version | Previous Version | Text Only | Print | Product List | Glossary On
Versions: 1 2 3 4 5 6 7 8 9 10 11 12 13 14 15 16 17 18 19 20 21 22 23 24
491
FTUS41 KCAR 301834 AAA
TAFBGR
TAF AMD
KBGR 301834Z 3019/3118 17010KT P6SM SCT005
     FM310200 20007KT P6SM BKN005
     FM310600 22004KT 2SM BR BKN005
     FM311200 26005KT P6SM FEW250=

USA.gov is the U.S. government's official web portal to all federal, state and local government web resources and services.